Time;durP1;ratioP1;P1;durP2;ratioP2;P2;SDS_P1;SDS_P2;PMS_P1;PMS_P2;Temp;Humidity;BMP_temperature;BMP_pressure;BME280_temperature;BME280_humidity;BME280_pressure;Samples;Min_cycle;Max_cycle;Signal;HPM_P1;HPM_P2
2023/12/20 00:07:08;;;;;;;;;;;;;;;;;;;;;
2023/12/20 00:14:37;;;;;;;6.72;1.30;;;;;;;;;;6027008;23;20376;-88
2023/12/20 00:22:04;;;;;;;3.10;1.23;;;;;;;;;;5887087;24;20052;-88
2023/12/20 00:41:04;;;;;;;6.30;1.25;;;;;;;;;;6201167;22;20249;-90
2023/12/20 00:43:30;;;;;;;10.02;1.63;;;;;;;;;;6123253;23;20598;-90
2023/12/20 00:45:56;;;;;;;9.45;1.55;;;;;;;;;;6143116;23;20464;-90
2023/12/20 00:48:23;;;;;;;8.38;1.60;;;;;;;;;;6170457;23;20016;-90
2023/12/20 00:50:51;;;;;;;12.32;1.50;;;;;;;;;;6123051;23;20020;-93
2023/12/20 00:53:17;;;;;;;6.70;1.60;;;;;;;;;;6148003;23;20017;-92
2023/12/20 00:55:44;;;;;;;12.48;1.83;;;;;;;;;;6147059;23;20078;-93
2023/12/20 00:58:10;;;;;;;7.90;1.70;;;;;;;;;;6168005;23;20042;-92
2023/12/20 01:00:36;;;;;;;6.75;2.00;;;;;;;;;;6122156;23;20349;-92
2023/12/20 01:03:02;;;;;;;6.25;1.40;;;;;;;;;;6121476;23;20016;-92
2023/12/20 01:05:29;;;;;;;6.28;1.63;;;;;;;;;;6147050;23;20067;-93
2023/12/20 01:07:55;;;;;;;4.70;1.65;;;;;;;;;;6144850;23;20017;-93
2023/12/20 01:10:23;;;;;;;6.68;1.25;;;;;;;;;;6172911;23;20388;-93
2023/12/20 01:12:51;;;;;;;6.13;1.48;;;;;;;;;;6121538;23;20024;-92
2023/12/20 01:15:17;;;;;;;6.07;1.30;;;;;;;;;;6122724;23;20116;-91
2023/12/20 01:17:44;;;;;;;11.10;1.58;;;;;;;;;;6172561;23;20020;-93
2023/12/20 01:20:10;;;;;;;12.20;1.83;;;;;;;;;;6144182;23;20439;-93
2023/12/20 01:22:36;;;;;;;7.40;1.73;;;;;;;;;;6121519;23;20438;-93
2023/12/20 01:25:02;;;;;;;6.57;1.50;;;;;;;;;;6144227;23;20021;-93
2023/12/20 01:27:29;;;;;;;5.82;1.63;;;;;;;;;;6146937;23;20016;-92
2023/12/20 01:29:55;;;;;;;7.18;1.73;;;;;;;;;;6119669;23;20047;-92
2023/12/20 01:32:21;;;;;;;6.78;1.30;;;;;;;;;;6146732;23;20071;-93
2023/12/20 01:34:48;;;;;;;7.15;1.70;;;;;;;;;;6120664;23;20731;-94
2023/12/20 01:37:14;;;;;;;7.88;1.70;;;;;;;;;;6117988;23;20078;-93
2023/12/20 01:39:40;;;;;;;9.55;1.83;;;;;;;;;;6139741;23;20027;-93
2023/12/20 01:42:09;;;;;;;14.35;1.77;;;;;;;;;;6139452;23;20031;-93
2023/12/20 01:44:35;;;;;;;9.30;1.92;;;;;;;;;;6118076;23;20076;-93
2023/12/20 01:47:01;;;;;;;10.82;1.70;;;;;;;;;;6113854;23;20092;-93
2023/12/20 01:49:27;;;;;;;10.45;1.58;;;;;;;;;;6141809;23;20021;-92
2023/12/20 01:51:53;;;;;;;8.57;1.60;;;;;;;;;;6115470;23;20025;-93
2023/12/20 01:54:19;;;;;;;7.18;3.22;;;;;;;;;;6142476;23;20016;-93
2023/12/20 01:56:45;;;;;;;10.50;1.83;;;;;;;;;;6117641;23;20040;-93
2023/12/20 01:59:11;;;;;;;7.30;1.85;;;;;;;;;;6115245;23;20021;-92
2023/12/20 02:01:41;;;;;;;10.68;2.00;;;;;;;;;;6139780;23;20013;-93
2023/12/20 02:04:09;;;;;;;9.07;1.67;;;;;;;;;;6143402;23;20032;-92
2023/12/20 02:06:35;;;;;;;7.22;1.77;;;;;;;;;;6122872;23;20021;-93
2023/12/20 02:09:01;;;;;;;9.50;1.67;;;;;;;;;;6117331;23;20024;-93
2023/12/20 02:11:28;;;;;;;8.60;1.65;;;;;;;;;;6119571;23;20159;-94
2023/12/20 02:13:54;;;;;;;11.68;2.47;;;;;;;;;;6117508;23;20040;-93
2023/12/20 02:16:20;;;;;;;7.95;1.80;;;;;;;;;;6143277;23;20053;-93
2023/12/20 02:18:46;;;;;;;14.38;2.38;;;;;;;;;;6142244;23;20021;-92
2023/12/20 02:21:12;;;;;;;11.05;1.85;;;;;;;;;;6141527;23;20096;-92
2023/12/20 02:23:38;;;;;;;10.07;1.85;;;;;;;;;;6167747;23;20072;-93
2023/12/20 02:26:05;;;;;;;12.65;1.92;;;;;;;;;;6142148;23;20793;-92
2023/12/20 02:28:31;;;;;;;12.05;2.42;;;;;;;;;;6143242;23;20024;-93
2023/12/20 02:30:57;;;;;;;13.80;2.30;;;;;;;;;;6139445;23;20020;-93
2023/12/20 02:33:23;;;;;;;11.02;1.90;;;;;;;;;;6143158;23;20097;-92
2023/12/20 02:35:52;;;;;;;14.50;2.10;;;;;;;;;;6141514;23;20041;-92
2023/12/20 02:38:18;;;;;;;13.07;2.22;;;;;;;;;;6166161;23;20750;-93
2023/12/20 02:40:44;;;;;;;13.68;2.33;;;;;;;;;;6117252;23;20025;-92
2023/12/20 02:43:10;;;;;;;8.40;1.48;;;;;;;;;;6116436;23;20025;-93
2023/12/20 02:45:36;;;;;;;13.35;1.90;;;;;;;;;;6117824;23;20025;-93
2023/12/20 02:48:03;;;;;;;8.57;1.98;;;;;;;;;;6116198;23;20460;-92
2023/12/20 02:50:29;;;;;;;8.10;2.13;;;;;;;;;;6142927;23;20016;-92
2023/12/20 02:52:55;;;;;;;8.80;2.75;;;;;;;;;;6165328;23;20032;-92
2023/12/20 02:55:21;;;;;;;9.68;1.85;;;;;;;;;;6118577;23;20017;-93
2023/12/20 02:57:47;;;;;;;4.40;1.52;;;;;;;;;;6145571;23;20151;-92
2023/12/20 03:00:15;;;;;;;9.73;1.80;;;;;;;;;;6144283;23;20051;-92
2023/12/20 03:02:41;;;;;;;;;;;;;;;;;;6123492;23;20013;-92
2023/12/20 03:05:07;;;;;;;14.52;2.10;;;;;;;;;;6143803;23;20393;-93
2023/12/20 03:07:34;;;;;;;14.75;2.25;;;;;;;;;;6120833;23;20028;-92
2023/12/20 03:10:00;;;;;;;12.30;2.15;;;;;;;;;;6143082;23;20120;-92
2023/12/20 03:12:26;;;;;;;8.68;1.85;;;;;;;;;;6144894;23;20099;-92
2023/12/20 03:14:52;;;;;;;15.35;2.15;;;;;;;;;;6143429;23;20031;-93
2023/12/20 03:17:20;;;;;;;9.20;2.33;;;;;;;;;;6120726;23;20020;-92
2023/12/20 03:19:51;;;;;;;9.98;1.95;;;;;;;;;;6119562;23;20096;-93
2023/12/20 03:22:17;;;;;;;12.75;2.60;;;;;;;;;;6142930;23;20021;-93
2023/12/20 03:24:44;;;;;;;13.35;1.88;;;;;;;;;;6118383;23;20017;-93
2023/12/20 03:27:10;;;;;;;16.48;2.75;;;;;;;;;;6117167;23;20456;-93
2023/12/20 03:29:36;;;;;;;13.93;2.17;;;;;;;;;;6145527;23;20021;-92
2023/12/20 03:32:02;;;;;;;18.65;2.63;;;;;;;;;;6118299;23;20029;-93
2023/12/20 03:34:29;;;;;;;11.85;2.20;;;;;;;;;;6122578;23;20059;-93
2023/12/20 03:36:55;;;;;;;17.40;2.83;;;;;;;;;;6118065;23;20028;-93
2023/12/20 03:39:21;;;;;;;14.48;2.58;;;;;;;;;;6119287;23;20052;-93
2023/12/20 03:41:47;;;;;;;12.65;2.25;;;;;;;;;;6144837;23;20017;-94
2023/12/20 03:44:13;;;;;;;10.68;2.40;;;;;;;;;;6141407;23;20017;-94
2023/12/20 03:46:39;;;;;;;13.77;2.00;;;;;;;;;;6118575;23;20017;-91
2023/12/20 03:49:05;;;;;;;14.95;2.63;;;;;;;;;;6141923;23;20075;-92
2023/12/20 03:51:31;;;;;;;11.65;2.80;;;;;;;;;;6143063;23;20095;-92
2023/12/20 03:53:57;;;;;;;9.25;2.10;;;;;;;;;;6116009;23;20101;-93
2023/12/20 03:56:23;;;;;;;19.25;3.05;;;;;;;;;;6118707;23;20021;-93
2023/12/20 03:58:52;;;;;;;18.95;2.97;;;;;;;;;;6144909;23;20445;-93
2023/12/20 04:01:18;;;;;;;;;;;;;;;;;;6122732;23;20485;-93
2023/12/20 04:03:44;;;;;;;16.42;2.53;;;;;;;;;;6170280;23;19916;-92
2023/12/20 04:06:10;;;;;;;8.65;2.10;;;;;;;;;;6142622;23;20017;-91
2023/12/20 04:08:36;;;;;;;17.05;3.00;;;;;;;;;;6145931;23;20025;-92
2023/12/20 04:11:02;;;;;;;15.30;2.50;;;;;;;;;;6144207;23;20017;-92
2023/12/20 04:13:29;;;;;;;12.77;2.83;;;;;;;;;;6169657;23;20021;-92
2023/12/20 04:15:55;;;;;;;15.23;2.50;;;;;;;;;;6142537;23;20021;-92
2023/12/20 04:18:21;;;;;;;14.07;2.63;;;;;;;;;;6120448;23;20024;-92
2023/12/20 04:20:47;;;;;;;20.50;2.38;;;;;;;;;;6119438;23;20032;-92
2023/12/20 04:23:13;;;;;;;19.52;2.80;;;;;;;;;;6117129;23;20017;-93
2023/12/20 04:25:42;;;;;;;18.52;2.83;;;;;;;;;;6121063;23;20021;-93
2023/12/20 04:28:08;;;;;;;11.00;2.08;;;;;;;;;;6120977;23;20333;-93
2023/12/20 04:30:35;;;;;;;11.93;2.30;;;;;;;;;;6123436;23;20056;-93
2023/12/20 04:33:02;;;;;;;14.63;2.45;;;;;;;;;;6119293;23;20021;-92
2023/12/20 04:35:28;;;;;;;17.48;3.13;;;;;;;;;;6121220;23;20021;-92
2023/12/20 04:37:54;;;;;;;11.38;2.60;;;;;;;;;;6119735;23;20092;-92
2023/12/20 04:40:20;;;;;;;12.02;2.63;;;;;;;;;;6169369;23;20050;-93
2023/12/20 04:42:46;;;;;;;19.38;3.75;;;;;;;;;;6170235;23;20029;-93
2023/12/20 04:45:13;;;;;;;15.00;2.83;;;;;;;;;;6145727;23;20084;-92
2023/12/20 04:47:42;;;;;;;15.07;2.53;;;;;;;;;;6121355;23;20052;-93
2023/12/20 04:50:08;;;;;;;;;;;;;;;;;;6166332;23;20323;-93
2023/12/20 04:52:36;;;;;;;12.35;2.70;;;;;;;;;;6141892;23;19938;-92
2023/12/20 04:55:02;;;;;;;17.08;2.60;;;;;;;;;;6138257;23;20238;-93
2023/12/20 04:57:28;;;;;;;15.70;2.35;;;;;;;;;;6141121;23;20330;-93
2023/12/20 04:59:54;;;;;;;17.90;2.70;;;;;;;;;;6163791;23;20028;-92
2023/12/20 05:02:20;;;;;;;16.85;2.30;;;;;;;;;;6119434;23;20108;-92
2023/12/20 05:04:47;;;;;;;9.45;2.97;;;;;;;;;;6144451;23;20017;-93
2023/12/20 05:07:13;;;;;;;16.13;2.78;;;;;;;;;;6118146;23;20393;-93
2023/12/20 05:09:41;;;;;;;14.00;2.78;;;;;;;;;;6169245;23;20020;-92
2023/12/20 05:12:07;;;;;;;15.23;2.40;;;;;;;;;;6116296;23;20025;-93
2023/12/20 05:14:33;;;;;;;18.20;2.90;;;;;;;;;;6142244;23;20473;-92
2023/12/20 05:16:59;;;;;;;21.08;3.38;;;;;;;;;;6141246;23;20027;-93
2023/12/20 05:19:36;;;;;;;12.77;2.05;;;;;;;;;;6144802;23;20024;-93
2023/12/20 05:22:02;;;;;;;15.40;3.25;;;;;;;;;;6119189;23;20052;-93
2023/12/20 05:24:31;;;;;;;17.13;2.45;;;;;;;;;;6123894;23;20021;-94
2023/12/20 05:27:01;;;;;;;18.10;2.80;;;;;;;;;;6123075;23;20028;-94
2023/12/20 05:29:57;;;;;;;16.67;3.42;;;;;;;;;;6125566;23;20032;-93
2023/12/20 05:32:24;;;;;;;16.88;3.67;;;;;;;;;;6143691;23;20060;-92
2023/12/20 05:35:17;;;;;;;13.05;2.65;;;;;;;;;;6120920;23;20056;-92
2023/12/20 05:37:59;;;;;;;16.90;3.13;;;;;;;;;;6144267;23;20537;-93
2023/12/20 05:40:33;;;;;;;14.65;2.70;;;;;;;;;;6145572;23;20092;-93
2023/12/20 05:43:28;;;;;;;11.27;2.42;;;;;;;;;;6124051;23;20056;-92
2023/12/20 05:46:22;;;;;;;;;;;;;;;;;;;;;
2023/12/20 05:48:53;;;;;;;18.58;2.95;;;;;;;;;;6146895;23;20032;-93
2023/12/20 05:51:19;;;;;;;;;;;;;;;;;;6145115;23;20021;-92
2023/12/20 05:53:49;;;;;;;16.80;3.10;;;;;;;;;;6167055;23;19987;-92
2023/12/20 05:56:38;;;;;;;11.15;2.58;;;;;;;;;;6120293;23;20068;-93
2023/12/20 05:59:04;;;;;;;;;;;;;;;;;;6140930;23;20071;-92
2023/12/20 06:01:46;;;;;;;;;;;;;;;;;;;;;
2023/12/20 06:07:10;;;;;;;16.02;2.65;;;;;;;;;;6149003;23;20021;-93
2023/12/20 06:09:49;;;;;;;;;;;;;;;;;;;;;
2023/12/20 06:12:36;;;;;;;12.80;2.97;;;;;;;;;;6150814;23;20020;-93
2023/12/20 06:15:14;;;;;;;16.77;2.95;;;;;;;;;;6123869;23;20028;-93
2023/12/20 06:17:43;;;;;;;16.85;3.63;;;;;;;;;;6121094;23;20044;-91
2023/12/20 06:20:13;;;;;;;17.17;2.72;;;;;;;;;;6119820;23;20123;-92
2023/12/20 06:22:45;;;;;;;19.42;3.17;;;;;;;;;;6120509;23;20017;-92
2023/12/20 06:25:23;;;;;;;12.73;2.90;;;;;;;;;;6123272;23;20020;-92
2023/12/20 06:27:51;;;;;;;13.88;2.42;;;;;;;;;;6143707;23;20025;-93
2023/12/20 06:30:20;;;;;;;18.95;3.13;;;;;;;;;;6118598;23;20521;-91
2023/12/20 06:32:52;;;;;;;13.75;2.95;;;;;;;;;;6118795;23;20025;-91
2023/12/20 06:35:19;;;;;;;19.60;3.28;;;;;;;;;;6120366;23;20346;-92
2023/12/20 06:37:45;;;;;;;17.95;2.88;;;;;;;;;;6119465;23;20024;-91
2023/12/20 06:40:21;;;;;;;13.93;2.97;;;;;;;;;;6120917;23;20021;-92
2023/12/20 06:42:48;;;;;;;16.48;3.45;;;;;;;;;;6168455;23;20475;-92
2023/12/20 06:45:16;;;;;;;13.88;2.97;;;;;;;;;;6145231;23;20512;-92
2023/12/20 06:47:44;;;;;;;10.55;2.35;;;;;;;;;;6206209;23;20031;-91
2023/12/20 06:50:15;;;;;;;16.40;3.00;;;;;;;;;;6147930;23;20540;-92
2023/12/20 06:52:46;;;;;;;9.30;2.42;;;;;;;;;;6150952;23;20056;-92
2023/12/20 06:55:12;;;;;;;26.08;2.92;;;;;;;;;;6146606;23;20107;-91
2023/12/20 06:57:38;;;;;;;13.88;3.38;;;;;;;;;;6148880;23;20013;-92
2023/12/20 07:00:04;;;;;;;19.85;3.40;;;;;;;;;;6151417;23;20059;-92
2023/12/20 07:02:36;;;;;;;13.63;3.25;;;;;;;;;;6150242;23;20044;-92
2023/12/20 07:05:04;;;;;;;19.17;2.75;;;;;;;;;;6173340;23;20017;-92
2023/12/20 07:07:30;;;;;;;26.02;3.80;;;;;;;;;;6150298;23;20021;-91
2023/12/20 07:09:56;;;;;;;12.68;3.03;;;;;;;;;;6147429;23;20048;-93
2023/12/20 07:12:22;;;;;;;18.75;3.15;;;;;;;;;;6147081;23;20070;-92
2023/12/20 07:14:48;;;;;;;14.52;4.18;;;;;;;;;;6149577;23;20439;-92
2023/12/20 07:17:18;;;;;;;15.15;3.00;;;;;;;;;;6152880;23;20020;-92
2023/12/20 07:19:56;;;;;;;;;;;;;;;;;;;;;
2023/12/20 07:22:44;;;;;;;19.67;4.00;;;;;;;;;;6179179;23;20020;-92
2023/12/20 07:25:23;;;;;;;;;;;;;;;;;;;;;
2023/12/20 07:27:49;;;;;;;17.65;2.92;;;;;;;;;;6177480;23;20017;-92
2023/12/20 07:30:18;;;;;;;18.42;3.13;;;;;;;;;;6176574;23;20044;-92
2023/12/20 07:33:00;;;;;;;12.88;2.35;;;;;;;;;;6174964;23;20017;-92
2023/12/20 07:35:27;;;;;;;11.88;2.45;;;;;;;;;;6153753;23;20032;-91
2023/12/20 07:37:58;;;;;;;18.80;2.88;;;;;;;;;;6146499;23;20528;-92
2023/12/20 07:40:37;;;;;;;15.68;2.88;;;;;;;;;;6154377;23;20089;-91
2023/12/20 07:43:09;;;;;;;15.18;2.90;;;;;;;;;;6176088;23;20020;-92
2023/12/20 07:45:44;;;;;;;17.20;3.58;;;;;;;;;;6158241;23;20020;-92
2023/12/20 07:48:12;;;;;;;15.35;3.13;;;;;;;;;;6179089;23;20945;-93
2023/12/20 07:50:38;;;;;;;18.75;3.85;;;;;;;;;;6158587;23;20778;-92
2023/12/20 07:53:04;;;;;;;21.55;3.55;;;;;;;;;;6176450;23;20016;-91
2023/12/20 07:55:31;;;;;;;18.30;2.85;;;;;;;;;;6183146;23;20024;-91
2023/12/20 07:57:57;;;;;;;14.27;2.83;;;;;;;;;;6181243;23;20020;-92
2023/12/20 08:00:23;;;;;;;11.20;3.17;;;;;;;;;;6185063;23;20043;-92
2023/12/20 08:02:51;;;;;;;16.77;3.60;;;;;;;;;;6182164;23;20027;-92
2023/12/20 08:24:13;;;;;;;24.50;4.07;;;;;;;;;;6207198;22;20028;-91
2023/12/20 08:26:53;;;;;;;17.85;3.53;;;;;;;;;;6207984;23;20028;-91
2023/12/20 08:29:38;;;;;;;15.77;2.78;;;;;;;;;;6209031;23;20016;-91
2023/12/20 08:32:09;;;;;;;19.80;3.72;;;;;;;;;;6202458;23;20027;-92
2023/12/20 08:34:47;;;;;;;17.50;3.10;;;;;;;;;;6204895;23;20016;-92
2023/12/20 08:37:40;;;;;;;21.98;3.67;;;;;;;;;;6205080;23;20051;-92
2023/12/20 08:40:09;;;;;;;15.20;2.45;;;;;;;;;;6191945;23;20018;-93
2023/12/20 08:45:30;;;;;;;13.15;3.17;;;;;;;;;;6209674;23;20095;-92
2023/12/20 08:47:59;;;;;;;11.68;2.83;;;;;;;;;;6202466;23;20351;-92
2023/12/20 08:50:29;;;;;;;9.45;3.35;;;;;;;;;;6180888;23;20023;-90
2023/12/20 08:53:33;;;;;;;13.93;2.10;;;;;;;;;;6201614;23;20527;-91
2023/12/20 08:56:17;;;;;;;8.63;2.00;;;;;;;;;;6227057;23;20024;-91
2023/12/20 08:58:43;;;;;;;;;;;;;;;;;;6227006;23;20018;-90
2023/12/20 09:01:12;;;;;;;9.23;2.33;;;;;;;;;;6203085;23;19923;-91
2023/12/20 09:04:13;;;;;;;12.35;2.95;;;;;;;;;;6200633;23;20017;-89
2023/12/20 09:10:04;;;;;;;14.80;2.53;;;;;;;;;;6165271;23;20199;-91
2023/12/20 09:12:39;;;;;;;21.33;2.85;;;;;;;;;;6174144;23;20721;-91
2023/12/20 09:15:24;;;;;;;16.08;2.80;;;;;;;;;;6201555;23;20756;-91
2023/12/20 09:18:09;;;;;;;;;;;;;;;;;;;;;
2023/12/20 09:21:11;;;;;;;16.67;4.22;;;;;;;;;;6177458;23;20082;-92
2023/12/20 09:26:57;;;;;;;20.15;3.88;;;;;;;;;;6179055;23;20020;-92
2023/12/20 09:29:42;;;;;;;;;;;;;;;;;;;;;
2023/12/20 09:32:23;;;;;;;15.73;3.00;;;;;;;;;;6178062;23;20059;-90
2023/12/20 09:35:14;;;;;;;15.52;4.25;;;;;;;;;;6151461;23;20383;-90
2023/12/20 09:37:52;;;;;;;11.75;3.03;;;;;;;;;;6154546;23;20108;-92
2023/12/20 09:40:27;;;;;;;11.93;2.42;;;;;;;;;;6153525;23;20013;-91
2023/12/20 09:43:00;;;;;;;10.75;1.45;;;;;;;;;;6150493;23;20016;-90
2023/12/20 09:45:26;;;;;;;7.18;1.38;;;;;;;;;;6151852;23;20761;-90
2023/12/20 09:47:55;;;;;;;2.38;0.75;;;;;;;;;;6151428;23;20103;-91
2023/12/20 09:50:27;;;;;;;4.50;1.48;;;;;;;;;;6152654;23;20024;-90
2023/12/20 09:52:59;;;;;;;1.23;0.75;;;;;;;;;;6150778;23;20024;-93
2023/12/20 09:55:30;;;;;;;6.00;0.80;;;;;;;;;;6177301;23;20070;-91
2023/12/20 09:58:15;;;;;;;5.68;0.85;;;;;;;;;;6178624;23;20021;-92
2023/12/20 10:00:41;;;;;;;6.80;1.10;;;;;;;;;;6151506;23;20017;-92
2023/12/20 10:03:15;;;;;;;2.63;0.60;;;;;;;;;;6149246;23;20012;-92
2023/12/20 10:05:41;;;;;;;5.35;1.27;;;;;;;;;;6152571;23;20074;-91
2023/12/20 10:08:20;;;;;;;4.95;0.68;;;;;;;;;;6149586;23;20024;-90
2023/12/20 10:10:46;;;;;;;;;;;;;;;;;;6174535;23;20020;-92
2023/12/20 10:13:27;;;;;;;6.43;1.20;;;;;;;;;;6173601;23;19947;-91
2023/12/20 10:15:57;;;;;;;4.70;0.98;;;;;;;;;;6169571;23;20420;-91
2023/12/20 10:18:35;;;;;;;3.92;0.73;;;;;;;;;;6148048;23;20077;-91
2023/12/20 10:21:04;;;;;;;7.47;1.30;;;;;;;;;;6172338;23;20087;-92
2023/12/20 10:23:53;;;;;;;3.13;0.95;;;;;;;;;;6149479;23;20017;-91
2023/12/20 10:26:36;;;;;;;;;;;;;;;;;;;;;
2023/12/20 10:29:16;;;;;;;6.47;1.10;;;;;;;;;;6171859;23;20481;-92
2023/12/20 10:31:44;;;;;;;4.28;1.10;;;;;;;;;;6146763;23;20017;-92
2023/12/20 10:34:13;;;;;;;5.85;1.08;;;;;;;;;;6146303;23;20024;-93
2023/12/20 10:36:39;;;;;;;;;;;;;;;;;;6148242;23;20020;-92
2023/12/20 10:39:11;;;;;;;2.80;1.10;;;;;;;;;;6168971;23;20449;-91
2023/12/20 10:41:43;;;;;;;4.75;1.05;;;;;;;;;;6149760;23;20017;-92
2023/12/20 10:44:12;;;;;;;6.32;1.00;;;;;;;;;;6148608;23;20450;-92
2023/12/20 10:46:49;;;;;;;3.30;0.90;;;;;;;;;;6151435;23;20024;-92
2023/12/20 10:49:16;;;;;;;3.08;1.23;;;;;;;;;;6146789;23;20357;-92
2023/12/20 10:51:58;;;;;;;5.05;1.10;;;;;;;;;;6149521;23;20025;-92
2023/12/20 10:54:25;;;;;;;7.53;1.50;;;;;;;;;;6149066;23;20080;-91
2023/12/20 10:57:03;;;;;;;5.57;1.10;;;;;;;;;;6146169;23;20020;-92
2023/12/20 10:59:36;;;;;;;7.68;1.35;;;;;;;;;;6152635;23;20111;-91
2023/12/20 11:02:27;;;;;;;6.68;1.25;;;;;;;;;;6147785;23;20028;-92
2023/12/20 11:05:08;;;;;;;4.22;1.23;;;;;;;;;;6178383;23;20188;-92
2023/12/20 11:07:53;;;;;;;5.22;1.10;;;;;;;;;;6148499;23;20475;-93
2023/12/20 11:10:58;;;;;;;6.47;1.13;;;;;;;;;;6151430;23;20074;-92
2023/12/20 11:13:27;;;;;;;4.63;1.33;;;;;;;;;;6179921;23;20226;-92
2023/12/20 11:18:56;;;;;;;3.85;0.60;;;;;;;;;;6171262;23;20026;-91
2023/12/20 11:21:25;;;;;;;5.55;1.00;;;;;;;;;;6182351;23;20095;-92
2023/12/20 11:23:57;;;;;;;4.57;1.10;;;;;;;;;;6148085;23;20059;-92
2023/12/20 11:26:33;;;;;;;;;;;;;;;;;;;;;
2023/12/20 11:29:21;;;;;;;2.85;1.00;;;;;;;;;;6174324;23;20028;-92
2023/12/20 11:32:05;;;;;;;8.07;1.25;;;;;;;;;;6196612;23;20280;-92
2023/12/20 11:34:37;;;;;;;6.15;1.50;;;;;;;;;;6152184;23;20024;-91
2023/12/20 11:37:08;;;;;;;6.85;1.40;;;;;;;;;;6147405;23;20063;-92
2023/12/20 11:39:47;;;;;;;6.85;1.30;;;;;;;;;;6202039;23;20066;-93
2023/12/20 11:42:16;;;;;;;;;;;;;;;;;;6146620;23;20023;-92
2023/12/20 11:44:56;;;;;;;5.75;1.23;;;;;;;;;;6174851;23;20240;-92
2023/12/20 11:47:37;;;;;;;6.65;1.13;;;;;;;;;;6173177;23;20536;-93
2023/12/20 11:50:10;;;;;;;8.55;0.85;;;;;;;;;;6146465;23;20027;-93
2023/12/20 11:55:36;;;;;;;9.50;1.50;;;;;;;;;;6177888;23;20031;-92
2023/12/20 11:58:09;;;;;;;6.97;1.73;;;;;;;;;;6148747;23;20021;-92
2023/12/20 12:04:06;;;;;;;9.70;2.03;;;;;;;;;;6179720;23;20480;-91
2023/12/20 13:39:40;;;;;;;5.47;1.10;;;;;;;;;;6229335;22;20460;-93
2023/12/20 13:42:26;;;;;;;5.85;1.20;;;;;;;;;;6236008;23;20031;-93
2023/12/20 13:45:18;;;;;;;6.45;1.13;;;;;;;;;;6176816;23;20351;-93
2023/12/20 13:48:50;;;;;;;6.03;1.38;;;;;;;;;;6198343;23;20020;-92
2023/12/20 13:55:00;;;;;;;7.10;1.60;;;;;;;;;;6210717;22;20026;-94
2023/12/20 13:57:39;;;;;;;;;;;;;;;;;;6199970;23;20032;-93
2023/12/20 14:00:48;;;;;;;4.20;1.40;;;;;;;;;;6189414;22;19928;-93
2023/12/20 14:03:36;;;;;;;5.25;1.27;;;;;;;;;;6200986;23;20012;-94
2023/12/20 14:06:20;;;;;;;;;;;;;;;;;;;;;
2023/12/20 14:12:15;;;;;;;;;;;;;;;;;;;;;
2023/12/20 14:14:57;;;;;;;;;;;;;;;;;;;;;
2023/12/20 14:17:29;;;;;;;5.88;1.02;;;;;;;;;;6194861;23;20047;-93
2023/12/20 14:19:55;;;;;;;3.38;1.08;;;;;;;;;;6141094;23;20365;-94
2023/12/20 14:22:21;;;;;;;14.43;1.50;;;;;;;;;;6191410;23;20082;-93
2023/12/20 14:24:47;;;;;;;7.65;1.30;;;;;;;;;;6142588;23;20377;-93
2023/12/20 14:27:13;;;;;;;8.18;1.65;;;;;;;;;;6164102;23;20024;-93
2023/12/20 14:29:39;;;;;;;5.80;1.92;;;;;;;;;;6166950;23;20337;-93
2023/12/20 14:32:06;;;;;;;9.95;2.20;;;;;;;;;;6189555;23;20461;-93
2023/12/20 14:34:32;;;;;;;9.20;2.95;;;;;;;;;;6142211;23;20016;-92
2023/12/20 14:36:58;;;;;;;7.80;2.22;;;;;;;;;;6163224;23;20048;-94
2023/12/20 14:39:24;;;;;;;5.75;1.50;;;;;;;;;;6167676;23;20020;-93
2023/12/20 14:41:50;;;;;;;2.75;1.83;;;;;;;;;;6164050;23;20025;-94
2023/12/20 14:44:17;;;;;;;9.82;1.95;;;;;;;;;;6167224;23;20020;-94
2023/12/20 14:46:43;;;;;;;6.15;2.00;;;;;;;;;;6142711;23;20024;-93
2023/12/20 14:49:09;;;;;;;8.25;1.60;;;;;;;;;;6141124;23;20017;-94
2023/12/20 14:51:37;;;;;;;4.03;1.65;;;;;;;;;;6143644;23;20017;-93
2023/12/20 14:54:03;;;;;;;8.00;1.90;;;;;;;;;;6140096;23;20017;-93
2023/12/20 14:56:29;;;;;;;7.40;1.92;;;;;;;;;;6142435;23;20016;-94
2023/12/20 14:58:55;;;;;;;6.68;2.13;;;;;;;;;;6141735;23;20020;-92
2023/12/20 15:01:21;;;;;;;5.60;2.03;;;;;;;;;;6192757;23;20016;-93
2023/12/20 15:03:48;;;;;;;5.38;2.20;;;;;;;;;;6141503;23;20110;-94
2023/12/20 15:06:14;;;;;;;10.55;2.47;;;;;;;;;;6139602;23;20038;-94
2023/12/20 15:08:41;;;;;;;9.52;1.77;;;;;;;;;;6168365;23;20361;-92
2023/12/20 15:11:07;;;;;;;5.60;2.42;;;;;;;;;;6141495;23;20067;-93
2023/12/20 15:13:33;;;;;;;2.75;1.65;;;;;;;;;;6164512;23;20087;-93
2023/12/20 15:15:59;;;;;;;7.72;1.65;;;;;;;;;;6138005;23;20092;-93
2023/12/20 15:18:25;;;;;;;4.75;1.40;;;;;;;;;;6189893;23;20119;-93
2023/12/20 15:20:51;;;;;;;6.63;1.25;;;;;;;;;;6142466;23;20013;-93
2023/12/20 15:23:18;;;;;;;5.95;1.55;;;;;;;;;;6170641;23;20027;-93
2023/12/20 15:25:44;;;;;;;8.32;1.92;;;;;;;;;;6171290;23;20028;-93
2023/12/20 15:28:10;;;;;;;8.27;1.67;;;;;;;;;;6142304;23;20521;-93
2023/12/20 15:30:37;;;;;;;5.45;1.30;;;;;;;;;;6144638;23;20023;-93
2023/12/20 15:33:03;;;;;;;4.55;1.20;;;;;;;;;;6141548;23;20017;-93
2023/12/20 15:35:30;;;;;;;5.10;1.50;;;;;;;;;;6140700;23;20020;-93
2023/12/20 15:37:58;;;;;;;3.40;1.10;;;;;;;;;;6139640;23;20020;-93
2023/12/20 15:40:24;;;;;;;8.50;1.80;;;;;;;;;;6167236;23;20016;-93
2023/12/20 15:43:16;;;;;;;5.25;1.42;;;;;;;;;;6141824;23;20024;-93
2023/12/20 15:46:21;;;;;;;13.35;1.85;;;;;;;;;;6150720;23;20016;-94
2023/12/20 15:49:05;;;;;;;7.70;2.78;;;;;;;;;;6174070;23;20024;-93
2023/12/20 15:51:56;;;;;;;;;;;;;;;;;;;;;
2023/12/20 17:05:44;;;;;;;10.77;2.90;;;;;;;;;;6250486;22;20095;-92
2023/12/20 17:12:30;;;;;;;;;;;;;;;;;;;;;
2023/12/20 17:18:20;;;;;;;25.27;4.25;;;;;;;;;;6232637;22;20133;-92
2023/12/20 17:31:04;;;;;;;11.88;3.90;;;;;;;;;;6253695;22;20031;-93
2023/12/20 17:34:18;;;;;;;15.65;3.58;;;;;;;;;;6214923;22;20808;-93
2023/12/20 17:44:10;;;;;;;;;;;;;;;;;;;;;
2023/12/20 17:47:00;;;;;;;15.95;4.28;;;;;;;;;;6069323;23;20029;-93
2023/12/20 17:53:16;;;;;;;13.45;3.55;;;;;;;;;;6167860;23;20016;-92
2023/12/20 17:56:15;;;;;;;;;;;;;;;;;;;;;
2023/12/20 18:05:09;;;;;;;10.88;3.25;;;;;;;;;;6164455;23;20032;-92
2023/12/20 18:08:31;;;;;;;8.88;3.10;;;;;;;;;;6085165;23;20133;-92
2023/12/20 18:18:52;;;;;;;;;;;;;;;;;;;;;
2023/12/20 18:25:29;;;;;;;;;;;;;;;;;;;;;
2023/12/20 18:48:40;;;;;;;;;;;;;;;;;;;;;
2023/12/20 23:35:50;;;;;;;13.50;2.33;;;;;;;;;;6252000;22;20047;-93
2023/12/20 23:38:41;;;;;;;8.43;2.53;;;;;;;;;;6233536;22;20023;-93
2023/12/20 23:41:33;;;;;;;12.98;3.15;;;;;;;;;;6204261;22;20790;-93
2023/12/20 23:44:07;;;;;;;12.93;2.83;;;;;;;;;;6187314;22;20016;-93
2023/12/20 23:50:25;;;;;;;8.77;3.55;;;;;;;;;;6212174;22;20526;-92
2023/12/20 23:53:08;;;;;;;14.50;3.13;;;;;;;;;;6227648;22;20019;-94
2023/12/20 23:55:34;;;;;;;13.07;3.38;;;;;;;;;;6207932;22;20076;-93
2023/12/20 23:58:29;;;;;;;;;;;;;;;;;;;;;
